Airfield :
LOGIN :

Register | Disclaimer

   EN    FR    IT 

 










Legend :    VFR   Marginal VFR   IFR   Intensive IFR   Very Intensive IFR
Visi :
Ceiling :
>= 8 km
>= 3000ft
5 to 8 km
1000 to 3000 ft
1500m to 5 km
500 to 1000 ft
800 to 1500m
200 to 500 ft
< 800m
< 200 ft
Symbols :   Thunderstorms  Fog  Heavy snow  Heavy precipitations  Wind > 20 kt
SIGMETs :     Misc.  Thunderstorms  Icing  Turbulence  Mountain Waves  Volcanic Ashes






- Airport Elevation : 219 ft
- IATA code : DNR


LFRD - Dinard

CURRENT METAR :
  • 280530Z AUTO 21005KT 9999 OVC006 08/07 Q1022 TEMPO 2000 -DZRA BR BKN004

EXPIRED METARs :
  • 280500Z AUTO 21005KT 6000 -RADZ BKN007 OVC013 08/07 Q1022 TEMPO 0500 FG VV///
  • 280430Z AUTO 22007KT 9999 SCT006 SCT013 OVC022 07/07 Q1022 TEMPO 0500 FG VV///
  • 280400Z AUTO 24007KT 9999 BKN009 OVC015 07/06 Q1022 TEMPO 0500 FG VV///
  • 280330Z AUTO 24008KT 9999 BKN009 BKN024 OVC031 08/06 Q1022 TEMPO 0500 FG VV///
  • 280300Z AUTO 23007KT 9999 OVC008 08/06 Q1022 TEMPO 2000 -DZRA BR
  • 280230Z AUTO 23008KT 9999 OVC010 08/06 Q1022 TEMPO 2000 -DZRA BR
  • 280200Z AUTO 23007KT 9999 OVC010 08/06 Q1022 TEMPO 2000 -DZRA BR
  • 280130Z AUTO 22006KT 9999 BKN013 OVC019 08/05 Q1022 TEMPO 2000 -DZRA BR BKN005
  • 280100Z AUTO 21006KT 9999 BKN015 OVC020 07/05 Q1023 TEMPO 2000 -DZRA BR BKN005

TAF TAF LFRD
Valid from the 28 at 06:00 until the 29 at 06:00 UTC


280500Z 2806/2906 24007KT 9999 SCT005 BKN020
TEMPO 2806/2816 4000 -DZRA BKN012
PROB40
TEMPO 2806/2809 2000 -DZRA BR BKN004
BECMG 2816/2818 OVC008
TEMPO 2818/2903 1200 -DZRA BKN002
BECMG 2901/2903 SCT010
ATIS : +33 2 99 16 81 50



MET'MAP, your aeronautical weather chart ! - Copyright ORBIFLY December 2007 - Disclaimer

ORBIFLY MET'MAP TEAM :

Programming & Development : Alexandra Zaïnal
Original concept : Baudouin d'Aumeries
Technical & hardware support : Manuel Goepfert
Assistance : Marc-Olivier Méhu




SOURCES & CREDITS :

   NOAA